Torrey, Utah
Current Conditions -  °F | °C
As of 2:53 PM on Friday 19 Dec 2014 (Local Time) from KBCE Reporting Station
Clear Clear  
Wind Chill: 25°   Ceiling: Unl
Heat Index: 33°   Visibility: 10mi
Dew Point: 21°   Wind: 10mph
Humidity: 61%   Direction: 150°SSE
Pressure: 30.17"   Gusts: NA
Location:  38.3°N, 111.42°W
Report Text: KBCE 192153Z AUTO 15009KT 10SM CLR 01/M06 A3017 RMK AO2 SLP222 T00061061
Loading
Personal Weather Stations






























Interactive Weather Map New forecast layout! Learn more

10-Day Weather Forecast

Advertisements
Track Severe Weather on mobile